Time;durP1;ratioP1;P1;durP2;ratioP2;P2;SDS_P1;SDS_P2;PMS_P1;PMS_P2;Temp;Humidity;BMP_temperature;BMP_pressure;BME280_temperature;BME280_humidity;BME280_pressure;Samples;Min_cycle;Max_cycle;Signal;HPM_P1;HPM_P2
2023/09/05 00:04:47;;;;;;;17.00;10.00;;;;;;;12.32;77.00;99753.76;436323;1251;96622;-43
2023/09/05 00:14:54;;;;;;;15.10;8.70;;;;;;;12.26;77.19;99746.64;436412;1253;110695;-43
2023/09/05 00:35:08;;;;;;;20.30;10.70;;;;;;;12.01;77.51;99743.96;437055;1253;464762;-42
2023/09/05 00:45:14;;;;;;;17.00;10.30;;;;;;;11.94;77.64;99740.02;437253;1263;108136;-43
2023/09/05 00:55:22;;;;;;;25.00;11.60;;;;;;;11.94;77.89;99734.63;437218;1253;97479;-43
2023/09/05 01:05:34;;;;;;;21.60;12.90;;;;;;;11.86;78.05;99727.85;437377;1247;110270;-42
2023/09/05 01:15:42;;;;;;;18.70;11.80;;;;;;;11.85;78.08;99719.96;437296;1252;107880;-43
2023/09/05 01:25:50;;;;;;;24.80;12.80;;;;;;;11.71;78.26;99715.25;437959;1242;97883;-41
2023/09/05 01:35:57;;;;;;;27.50;13.90;;;;;;;11.65;78.57;99719.16;436358;1253;109012;-44
2023/09/05 01:46:04;;;;;;;22.80;12.70;;;;;;;11.61;78.81;99716.84;436362;1253;108141;-42
2023/09/05 01:56:11;;;;;;;24.60;13.10;;;;;;;11.56;79.22;99719.34;436332;1249;97877;-42
2023/09/05 02:06:18;;;;;;;25.50;14.00;;;;;;;11.59;79.21;99717.25;436358;1253;107650;-43
2023/09/05 02:16:27;;;;;;;27.00;16.10;;;;;;;11.56;79.52;99712.27;436154;1251;97876;-43
2023/09/05 02:26:37;;;;;;;32.40;15.80;;;;;;;11.47;79.35;99710.20;436460;1253;110152;-42
2023/09/05 02:36:43;;;;;;;27.80;14.20;;;;;;;11.47;79.81;99708.95;436236;1251;107078;-42
2023/09/05 02:46:49;;;;;;;27.20;13.50;;;;;;;11.41;79.56;99702.16;436242;1250;97909;-43
2023/09/05 02:56:56;;;;;;;22.40;13.00;;;;;;;11.41;79.98;99709.13;436359;1252;107834;-43
2023/09/05 03:07:02;;;;;;;28.30;16.50;;;;;;;11.43;79.94;99703.70;436475;1249;97470;-42
2023/09/05 03:27:16;;;;;;;20.20;14.00;;;;;;;11.12;80.42;99696.00;436302;1253;106729;-42
2023/09/05 03:37:23;;;;;;;21.30;13.80;;;;;;;11.12;80.57;99702.69;436250;1253;97845;-44
2023/09/05 03:47:29;;;;;;;20.10;12.80;;;;;;;11.02;80.78;99700.70;436435;1253;108171;-43
2023/09/05 03:57:36;;;;;;;22.20;13.90;;;;;;;11.02;80.81;99702.16;436294;1253;97893;-43
2023/09/05 04:07:42;;;;;;;17.30;11.80;;;;;;;10.91;80.80;99716.44;436306;1253;111080;-42
2023/09/05 04:17:50;;;;;;;16.90;13.20;;;;;;;10.88;81.00;99730.33;436632;1250;109283;-42
2023/09/05 04:27:57;;;;;;;21.20;13.30;;;;;;;10.79;81.05;99738.77;436408;1253;97861;-44
2023/09/05 04:38:04;;;;;;;20.00;12.70;;;;;;;10.79;81.08;99735.45;436322;1253;110472;-42
2023/09/05 04:48:11;;;;;;;17.70;11.70;;;;;;;10.92;81.41;99746.02;436281;1253;108515;-42
2023/09/05 04:58:17;;;;;;;23.50;12.20;;;;;;;11.17;81.62;99747.11;436240;1253;97867;-43
2023/09/05 05:08:24;;;;;;;17.00;11.80;;;;;;;11.57;81.89;99743.63;436372;1252;108989;-45
2023/09/05 05:18:31;;;;;;;17.50;12.40;;;;;;;12.63;82.57;99746.73;436308;1253;98592;-44
2023/09/05 05:38:43;;;;;;;20.00;10.40;;;;;;;15.74;81.57;99741.73;436334;1252;108994;-43
2023/09/05 05:48:48;;;;;;;14.40;10.50;;;;;;;16.75;80.80;99744.84;436472;1252;97466;-43
2023/09/05 05:58:55;;;;;;;12.60;9.00;;;;;;;17.79;79.76;99744.88;436255;1250;111929;-42
2023/09/05 06:09:02;;;;;;;17.90;8.90;;;;;;;18.84;78.81;99746.77;436495;1251;108181;-43
2023/09/05 06:19:09;;;;;;;16.90;10.20;;;;;;;19.55;77.30;99747.02;436532;1252;97887;-42
2023/09/05 06:29:15;;;;;;;11.00;7.60;;;;;;;20.35;75.99;99744.13;436306;1253;109867;-42
2023/09/05 06:39:22;;;;;;;15.70;7.60;;;;;;;21.01;74.04;99738.56;436231;1261;108479;-42
2023/09/05 06:49:28;;;;;;;9.90;7.00;;;;;;;21.51;71.81;99734.39;436332;1253;96634;-43
2023/09/05 06:59:35;;;;;;;12.80;6.90;;;;;;;21.75;69.38;99733.22;436431;1253;109899;-42
2023/09/05 07:09:41;;;;;;;;;;;;;;;22.19;68.15;99728.91;436528;1253;107643;-42
2023/09/05 07:19:48;;;;;;;13.90;7.00;;;;;;;21.70;65.20;99736.52;436421;1260;97862;-42
2023/09/05 07:29:54;;;;;;;12.20;5.70;;;;;;;21.65;65.28;99746.45;436288;1253;110983;-41
2023/09/05 07:40:01;;;;;;;13.50;6.40;;;;;;;21.41;64.41;99747.11;436242;1253;108440;-42
2023/09/05 07:50:06;;;;;;;13.30;10.10;;;;;;;21.29;64.53;99741.45;436349;1251;96926;-42
2023/09/05 08:20:26;;;;;;;13.50;8.90;;;;;;;22.90;63.77;99736.98;436473;1248;108528;-41
2023/09/05 08:40:39;;;;;;;9.80;5.70;;;;;;;23.14;61.21;99728.33;436258;1261;97874;-43
2023/09/05 08:50:46;;;;;;;15.20;6.40;;;;;;;23.22;60.24;99731.43;436342;1248;110559;-42
2023/09/05 09:31:24;;;;;;;8.80;4.60;;;;;;;23.59;58.06;99708.66;436800;1252;107570;-41
2023/09/05 09:51:42;;;;;;;7.50;3.30;;;;;;;24.14;55.45;99694.02;436603;1261;109917;-42
2023/09/05 10:11:56;;;;;;;6.80;3.10;;;;;;;24.55;54.28;99689.65;436919;1248;97791;-45
2023/09/05 10:32:13;;;;;;;6.20;3.70;;;;;;;24.89;52.96;99680.84;436944;1253;108333;-43
2023/09/05 10:42:27;;;;;;;7.40;3.70;;;;;;;24.94;51.85;99678.33;436672;1254;97860;-43
2023/09/05 10:52:35;;;;;;;5.00;3.40;;;;;;;24.75;50.29;99669.45;436076;1247;111150;-45
2023/09/05 11:02:44;;;;;;;12.70;4.30;;;;;;;25.04;50.94;99661.92;436412;1248;107018;-42
2023/09/05 11:43:13;;;;;;;4.20;3.10;;;;;;;25.03;49.56;99628.33;436437;1254;97860;-41
2023/09/05 11:53:22;;;;;;;4.60;3.50;;;;;;;24.85;48.28;99604.95;436242;1252;108888;-42
2023/09/05 12:03:31;;;;;;;5.00;3.60;;;;;;;24.64;47.60;99593.67;436278;1253;97963;-42
2023/09/05 12:23:48;;;;;;;3.60;3.20;;;;;;;24.66;47.64;99574.05;436288;1247;107532;-43
2023/09/05 12:44:02;;;;;;;4.60;3.40;;;;;;;24.32;47.61;99551.67;436386;1254;108281;-44
2023/09/05 12:54:10;;;;;;;4.80;4.00;;;;;;;24.11;47.10;99543.45;436274;1253;107744;-42
2023/09/05 13:14:24;;;;;;;;;;;;;;;23.73;46.85;99531.59;436305;1253;109754;-43
2023/09/05 13:24:31;;;;;;;4.30;3.30;;;;;;;23.70;46.95;99522.83;436168;1253;108440;-42
2023/09/05 13:34:38;;;;;;;7.20;3.60;;;;;;;23.80;47.42;99512.14;436279;1253;97861;-42
2023/09/05 13:54:52;;;;;;;5.00;4.00;;;;;;;23.82;47.62;99495.23;436088;1253;108373;-44
2023/09/05 14:04:58;;;;;;;;;;;;;;;23.87;47.67;99492.73;436306;1253;97502;-43
2023/09/05 14:15:03;;;;;;;6.00;3.90;;;;;;;23.68;47.26;99486.73;436393;1248;109924;-43
2023/09/05 14:25:09;;;;;;;6.00;4.00;;;;;;;23.70;47.73;99482.02;436225;1251;108009;-43
2023/09/05 14:45:21;;;;;;;5.80;4.00;;;;;;;23.46;48.14;99468.98;436329;1250;110370;-44
2023/09/05 14:55:28;;;;;;;4.70;3.50;;;;;;;23.52;48.03;99464.88;436256;1248;109242;-43
2023/09/05 15:05:36;;;;;;;4.30;3.70;;;;;;;23.44;48.20;99464.14;436194;1254;97867;-44
2023/09/05 15:15:42;;;;;;;3.80;3.50;;;;;;;23.34;48.13;99456.30;436371;1253;110227;-42
2023/09/05 15:25:49;;;;;;;6.70;4.10;;;;;;;23.27;48.12;99448.90;436277;1253;109411;-43
2023/09/05 15:56:12;;;;;;;18.90;4.20;;;;;;;22.91;48.77;99443.01;436219;1247;107448;-43
2023/09/05 16:06:18;;;;;;;6.10;4.20;;;;;;;22.67;49.20;99428.64;436260;1253;119449;-43
2023/09/05 16:16:26;;;;;;;6.70;4.20;;;;;;;22.49;49.41;99423.59;436358;1248;108463;-43
2023/09/05 16:26:33;;;;;;;6.50;4.10;;;;;;;22.31;49.79;99423.73;436313;1247;97238;-43
2023/09/05 16:36:41;;;;;;;7.40;4.00;;;;;;;22.08;50.30;99436.58;436535;1249;110188;-42
2023/09/05 16:46:48;;;;;;;5.60;4.00;;;;;;;21.76;50.99;99431.55;436233;1253;108500;-44
2023/09/05 17:07:03;;;;;;;11.40;5.80;;;;;;;20.77;52.78;99435.89;436365;1248;109325;-42
2023/09/05 17:27:14;;;;;;;23.40;8.00;;;;;;;19.62;55.27;99437.27;436294;1253;97349;-42
2023/09/05 17:37:22;;;;;;;16.10;7.60;;;;;;;19.10;56.24;99434.16;436424;1247;110656;-42
2023/09/05 17:57:35;;;;;;;18.00;11.00;;;;;;;18.48;58.58;99429.46;436464;1247;97044;-41
2023/09/05 18:07:42;;;;;;;13.70;7.60;;;;;;;18.20;59.41;99428.37;436434;1247;110771;-42
2023/09/05 18:17:48;;;;;;;14.00;7.50;;;;;;;17.84;60.11;99434.46;436278;1247;108560;-41
2023/09/05 18:27:55;;;;;;;15.30;8.00;;;;;;;17.52;60.79;99440.13;436406;1253;97862;-42
2023/09/05 18:48:05;;;;;;;12.80;8.70;;;;;;;17.02;62.22;99449.02;436177;1247;107427;-42
2023/09/05 19:08:16;;;;;;;14.30;7.20;;;;;;;16.55;63.52;99454.38;436332;1253;110241;-41
2023/09/05 19:18:25;;;;;;;13.10;7.70;;;;;;;16.38;64.18;99448.14;436179;1252;108574;-42
2023/09/05 19:28:33;;;;;;;19.40;9.50;;;;;;;16.31;64.73;99443.18;436277;1247;118512;-43
2023/09/05 20:19:08;;;;;;;19.60;13.50;;;;;;;16.04;66.43;99445.00;436371;1252;96889;-42
2023/09/05 20:29:16;;;;;;;25.70;12.40;;;;;;;15.75;66.46;99441.36;436307;1253;109714;-42
2023/09/05 20:49:29;;;;;;;21.20;12.50;;;;;;;15.52;67.68;99450.40;436290;1247;97473;-41
2023/09/05 21:09:42;;;;;;;23.00;12.90;;;;;;;15.15;68.34;99439.75;436437;1248;97864;-41
2023/09/05 21:19:51;;;;;;;16.50;12.10;;;;;;;14.95;68.35;99430.67;436297;1253;110798;-43
2023/09/05 21:29:58;;;;;;;12.80;8.80;;;;;;;14.88;68.87;99429.39;436247;1253;108694;-41
2023/09/05 21:40:04;;;;;;;16.30;9.30;;;;;;;14.88;69.14;99427.80;436282;1248;97897;-42
2023/09/05 21:50:11;;;;;;;12.70;10.40;;;;;;;14.89;69.32;99426.02;436427;1247;105831;-43
2023/09/05 22:10:24;;;;;;;14.70;10.30;;;;;;;14.60;69.58;99435.58;436390;1253;110933;-42
2023/09/05 22:20:30;;;;;;;20.40;11.90;;;;;;;14.57;69.91;99442.98;436288;1261;107520;-41
2023/09/05 22:40:58;;;;;;;20.70;12.90;;;;;;;14.63;70.48;99443.88;436418;1251;107719;-42
2023/09/05 23:01:09;;;;;;;22.40;14.60;;;;;;;14.11;70.84;99447.88;436337;1253;112363;-42
2023/09/05 23:11:15;;;;;;;20.00;12.30;;;;;;;13.96;71.17;99450.15;436410;1253;107642;-41
2023/09/05 23:21:22;;;;;;;20.40;12.70;;;;;;;13.90;71.74;99441.21;436380;1249;97844;-42
2023/09/05 23:31:31;;;;;;;18.00;13.20;;;;;;;14.01;72.04;99435.17;436415;1253;108541;-42
2023/09/05 23:41:38;;;;;;;20.10;13.00;;;;;;;13.91;72.38;99425.66;436520;1250;98109;-42
2023/09/05 23:51:47;;;;;;;20.70;11.40;;;;;;;13.75;72.29;99415.95;436375;1252;111939;-42
